Time;durP1;ratioP1;P1;durP2;ratioP2;P2;SDS_P1;SDS_P2;PMS_P1;PMS_P2;Temp;Humidity;BMP_temperature;BMP_pressure;BME280_temperature;BME280_humidity;BME280_pressure;Samples;Min_cycle;Max_cycle;Signal;HPM_P1;HPM_P2
2023/09/25 00:01:59;;;;;;;7.30;1.40;;;11.10;99.90;;;;;;4979628;28;20279;-84
2023/09/25 00:04:28;;;;;;;5.25;1.60;;;11.00;99.90;;;;;;4984207;28;20195;-84
2023/09/25 00:06:56;;;;;;;4.68;1.50;;;11.20;99.90;;;;;;4978240;28;20259;-83
2023/09/25 00:09:24;;;;;;;3.45;1.48;;;11.30;99.90;;;;;;4983462;28;20191;-83
2023/09/25 00:11:52;;;;;;;4.93;1.73;;;11.20;99.90;;;;;;4984011;28;20188;-84
2023/09/25 00:14:19;;;;;;;4.88;1.60;;;11.20;99.90;;;;;;4984841;28;20686;-83
2023/09/25 00:16:47;;;;;;;3.40;1.60;;;11.20;99.90;;;;;;4982987;28;20192;-83
2023/09/25 00:19:16;;;;;;;4.97;1.60;;;11.10;99.90;;;;;;4967611;28;20231;-83
2023/09/25 00:21:44;;;;;;;7.40;2.35;;;11.10;99.90;;;;;;4976751;28;20180;-84
2023/09/25 00:24:12;;;;;;;3.42;1.58;;;11.10;99.90;;;;;;4984811;28;20216;-83
2023/09/25 00:26:40;;;;;;;4.03;1.65;;;11.10;99.90;;;;;;4984998;28;20684;-83
2023/09/25 00:29:11;;;;;;;5.82;1.48;;;11.00;99.90;;;;;;4970089;28;20659;-84
2023/09/25 00:31:38;;;;;;;4.32;1.70;;;10.90;99.90;;;;;;4983585;28;20199;-84
2023/09/25 00:34:06;;;;;;;6.05;1.60;;;10.90;99.90;;;;;;4985387;28;20198;-83
2023/09/25 00:36:34;;;;;;;6.15;1.58;;;10.90;99.90;;;;;;4984998;28;20187;-82
2023/09/25 00:39:05;;;;;;;6.13;1.50;;;10.90;99.90;;;;;;4965478;28;20220;-84
2023/09/25 00:41:33;;;;;;;3.42;1.40;;;10.60;99.90;;;;;;4983188;28;20217;-82
2023/09/25 00:44:01;;;;;;;3.67;1.33;;;10.40;99.90;;;;;;4972147;28;20184;-84
2023/09/25 00:46:30;;;;;;;6.07;1.42;;;10.60;99.90;;;;;;4985679;28;20274;-83
2023/09/25 00:48:58;;;;;;;7.40;1.42;;;10.70;99.90;;;;;;4959485;28;20313;-84
2023/09/25 00:51:27;;;;;;;4.55;1.80;;;10.70;99.90;;;;;;4949525;28;20634;-83
2023/09/25 00:53:55;;;;;;;3.60;1.40;;;10.70;99.90;;;;;;4969569;28;20246;-83
2023/09/25 00:56:23;;;;;;;4.88;1.55;;;10.70;99.90;;;;;;4966955;28;20195;-84
2023/09/25 00:58:52;;;;;;;6.22;1.40;;;10.80;99.90;;;;;;4977584;28;20204;-83
2023/09/25 01:01:20;;;;;;;6.65;1.70;;;10.90;99.90;;;;;;4980533;28;20539;-84
2023/09/25 01:03:48;;;;;;;6.03;1.60;;;10.80;99.90;;;;;;4964335;28;20187;-83
2023/09/25 01:06:17;;;;;;;8.15;1.95;;;10.60;99.90;;;;;;4949560;28;20235;-84
2023/09/25 01:08:44;;;;;;;5.18;1.33;;;10.60;99.90;;;;;;4977125;28;20211;-85
2023/09/25 01:11:12;;;;;;;3.53;1.30;;;10.60;99.90;;;;;;4951150;28;20745;-84
2023/09/25 01:13:40;;;;;;;4.88;1.67;;;10.70;99.90;;;;;;4983195;28;20198;-84
2023/09/25 01:16:08;;;;;;;4.40;1.60;;;10.70;99.90;;;;;;4974550;28;20200;-84
2023/09/25 01:18:36;;;;;;;3.10;1.35;;;10.80;99.90;;;;;;4963959;28;20203;-83
2023/09/25 01:21:04;;;;;;;4.78;1.23;;;10.70;99.90;;;;;;4978267;28;20223;-83
2023/09/25 01:23:31;;;;;;;4.60;1.40;;;10.70;99.90;;;;;;4955564;28;20352;-81
2023/09/25 01:25:59;;;;;;;4.75;1.40;;;10.60;99.90;;;;;;4966073;28;20555;-84
2023/09/25 01:28:27;;;;;;;3.80;1.52;;;10.60;99.90;;;;;;4966655;28;20200;-85
2023/09/25 01:30:56;;;;;;;4.90;1.40;;;10.60;99.90;;;;;;4966016;28;20191;-84
2023/09/25 01:33:23;;;;;;;2.58;1.30;;;10.60;99.90;;;;;;4964617;28;20246;-84
2023/09/25 01:35:51;;;;;;;6.05;1.48;;;10.40;99.90;;;;;;4982264;28;20195;-84
2023/09/25 01:38:19;;;;;;;5.65;1.58;;;10.50;99.90;;;;;;4960770;28;20207;-84
2023/09/25 01:40:47;;;;;;;7.65;1.50;;;10.50;99.90;;;;;;4965850;28;20187;-84
2023/09/25 01:43:15;;;;;;;6.97;1.40;;;10.70;99.90;;;;;;4962326;28;20188;-83
2023/09/25 01:45:42;;;;;;;8.75;1.83;;;10.70;99.90;;;;;;4963184;28;20274;-83
2023/09/25 01:48:11;;;;;;;4.38;1.55;;;10.50;99.90;;;;;;4983621;28;20544;-84
2023/09/25 01:50:39;;;;;;;2.47;1.10;;;10.40;99.90;;;;;;4981101;28;20188;-84
2023/09/25 01:53:07;;;;;;;3.03;1.27;;;10.40;99.90;;;;;;4966676;28;20187;-84
2023/09/25 01:55:39;;;;;;;3.75;1.30;;;10.50;99.90;;;;;;4964986;28;20277;-82
2023/09/25 01:58:08;;;;;;;5.80;1.42;;;10.50;99.90;;;;;;4957240;28;20195;-85
2023/09/25 02:00:36;;;;;;;3.13;1.20;;;10.30;99.90;;;;;;4968176;28;20294;-83
2023/09/25 02:03:05;;;;;;;3.55;1.55;;;10.30;99.90;;;;;;4982520;28;20884;-83
2023/09/25 02:05:33;;;;;;;6.43;1.52;;;10.30;99.90;;;;;;4983551;28;20671;-83
2023/09/25 02:08:02;;;;;;;3.30;1.40;;;10.20;99.90;;;;;;4949996;28;20199;-83
2023/09/25 02:10:33;;;;;;;5.47;1.33;;;10.10;99.90;;;;;;4983042;28;20209;-84
2023/09/25 02:13:01;;;;;;;4.10;1.27;;;10.10;99.90;;;;;;4960858;28;20192;-84
2023/09/25 02:15:29;;;;;;;5.60;1.58;;;10.30;99.90;;;;;;4980086;28;20187;-84
2023/09/25 02:17:57;;;;;;;3.40;1.70;;;10.30;99.90;;;;;;4972884;28;20241;-85
2023/09/25 02:20:25;;;;;;;5.43;1.52;;;10.30;99.90;;;;;;4954587;28;20232;-84
2023/09/25 02:22:53;;;;;;;9.70;1.60;;;10.20;99.90;;;;;;4983017;28;20666;-84
2023/09/25 02:25:21;;;;;;;6.28;1.48;;;10.20;99.90;;;;;;4961584;28;20184;-83
2023/09/25 02:27:49;;;;;;;4.45;1.38;;;10.20;99.90;;;;;;4983181;28;20191;-83
2023/09/25 02:30:16;;;;;;;4.30;1.33;;;10.10;99.90;;;;;;4980378;28;20278;-85
2023/09/25 02:32:45;;;;;;;4.00;1.25;;;10.10;99.90;;;;;;4963213;28;20203;-85
2023/09/25 02:35:13;;;;;;;4.78;1.20;;;10.00;99.90;;;;;;4963467;28;20254;-83
2023/09/25 02:37:42;;;;;;;8.07;1.58;;;10.00;99.90;;;;;;4974105;28;20281;-83
2023/09/25 02:40:14;;;;;;;3.90;1.45;;;10.00;99.90;;;;;;4949269;28;20696;-83
2023/09/25 02:42:46;;;;;;;2.63;1.15;;;10.00;99.90;;;;;;4986874;28;20212;-81
2023/09/25 02:45:15;;;;;;;3.42;1.20;;;9.90;99.90;;;;;;4962927;28;20204;-83
2023/09/25 02:47:43;;;;;;;3.47;1.08;;;9.80;99.90;;;;;;4971344;28;20251;-84
2023/09/25 02:50:13;;;;;;;6.47;1.77;;;9.90;99.90;;;;;;4962546;28;20199;-83
2023/09/25 02:52:43;;;;;;;5.00;1.20;;;10.00;99.90;;;;;;4967520;28;20191;-84
2023/09/25 02:55:12;;;;;;;4.65;1.60;;;9.90;99.90;;;;;;4962204;28;20253;-82
2023/09/25 02:57:39;;;;;;;9.55;1.50;;;10.10;99.90;;;;;;4970563;28;20200;-82
2023/09/25 03:00:11;;;;;;;4.85;1.58;;;10.10;99.90;;;;;;4971514;28;20212;-83
2023/09/25 03:02:39;;;;;;;4.57;1.48;;;9.90;99.90;;;;;;4947257;28;20196;-84
2023/09/25 03:05:08;;;;;;;4.85;1.40;;;9.70;99.90;;;;;;4982153;28;20238;-83
2023/09/25 03:07:35;;;;;;;5.00;1.63;;;9.60;99.90;;;;;;4980616;28;20560;-85
2023/09/25 03:10:03;;;;;;;3.53;1.08;;;9.60;99.90;;;;;;4972745;28;20195;-84
2023/09/25 03:12:31;;;;;;;6.07;1.70;;;9.60;99.90;;;;;;4976507;28;20670;-85
2023/09/25 03:14:59;;;;;;;6.40;1.33;;;9.60;99.90;;;;;;4969887;28;20275;-84
2023/09/25 03:17:27;;;;;;;2.20;1.23;;;9.50;99.90;;;;;;4963541;28;20278;-86
2023/09/25 03:19:54;;;;;;;4.18;1.30;;;9.50;99.90;;;;;;4980722;28;20227;-83
2023/09/25 03:22:22;;;;;;;9.77;2.08;;;9.20;99.90;;;;;;4974276;28;20188;-84
2023/09/25 03:24:50;;;;;;;6.57;1.40;;;8.90;99.90;;;;;;4963377;28;20195;-84
2023/09/25 03:27:18;;;;;;;6.10;1.73;;;9.00;99.90;;;;;;4982018;28;20187;-84
2023/09/25 03:29:46;;;;;;;2.97;1.25;;;9.20;99.90;;;;;;4961903;28;20200;-83
2023/09/25 03:32:14;;;;;;;7.28;1.60;;;9.20;99.90;;;;;;4978383;28;20242;-84
2023/09/25 03:34:41;;;;;;;6.30;2.10;;;9.20;99.90;;;;;;4953719;28;20662;-85
2023/09/25 03:37:10;;;;;;;4.55;1.80;;;9.10;99.90;;;;;;4970778;28;20618;-84
2023/09/25 03:39:38;;;;;;;2.85;1.35;;;9.10;99.90;;;;;;4963457;28;20701;-86
2023/09/25 03:42:05;;;;;;;5.88;1.23;;;8.70;99.90;;;;;;4963995;28;20242;-83
2023/09/25 03:44:33;;;;;;;6.22;1.50;;;8.50;99.90;;;;;;4958812;28;20303;-84
2023/09/25 03:47:01;;;;;;;4.05;1.38;;;8.80;99.90;;;;;;4969948;28;20190;-85
2023/09/25 03:49:29;;;;;;;7.28;1.42;;;9.10;99.90;;;;;;4948761;28;20404;-84
2023/09/25 03:51:57;;;;;;;3.50;1.65;;;9.20;99.90;;;;;;4961520;28;20183;-85
2023/09/25 03:54:24;;;;;;;7.97;1.30;;;8.90;99.90;;;;;;4982650;28;20530;-84
2023/09/25 03:56:52;;;;;;;6.13;1.30;;;8.80;99.90;;;;;;4970517;28;20203;-85
2023/09/25 03:59:20;;;;;;;4.53;1.45;;;9.00;99.90;;;;;;4957141;28;20207;-84
2023/09/25 04:01:48;;;;;;;4.80;1.45;;;9.20;99.90;;;;;;4976312;28;20688;-85
2023/09/25 04:04:15;;;;;;;4.70;1.67;;;9.10;99.90;;;;;;4970447;28;20188;-84
2023/09/25 04:06:43;;;;;;;7.13;1.73;;;9.00;99.90;;;;;;4984467;28;20214;-83
2023/09/25 04:09:11;;;;;;;5.43;1.17;;;8.70;99.90;;;;;;4969217;28;20662;-84
2023/09/25 04:11:39;;;;;;;3.47;1.50;;;8.80;99.90;;;;;;4964005;28;20195;-84
2023/09/25 04:14:06;;;;;;;7.22;1.90;;;9.00;99.90;;;;;;4947485;28;20191;-83
2023/09/25 04:16:34;;;;;;;7.22;1.60;;;9.30;99.90;;;;;;4979218;28;20659;-84
2023/09/25 04:19:04;;;;;;;4.82;1.55;;;9.30;99.90;;;;;;4961425;28;20219;-84
2023/09/25 04:21:32;;;;;;;2.85;1.42;;;9.20;99.90;;;;;;4974185;28;20194;-84
2023/09/25 04:24:01;;;;;;;6.95;1.90;;;9.10;99.90;;;;;;4969125;28;20689;-85
2023/09/25 04:26:29;;;;;;;6.30;1.60;;;9.20;99.90;;;;;;4970815;28;20219;-85
2023/09/25 04:28:57;;;;;;;5.78;1.73;;;9.00;99.90;;;;;;4980637;28;20928;-84
2023/09/25 04:31:24;;;;;;;10.27;3.88;;;9.00;99.90;;;;;;4969158;28;20575;-84
2023/09/25 04:33:52;;;;;;;2.67;1.50;;;8.60;99.90;;;;;;4982148;28;20233;-84
2023/09/25 04:36:23;;;;;;;5.13;1.55;;;8.50;99.90;;;;;;4982726;28;20187;-84
2023/09/25 04:38:51;;;;;;;6.97;1.60;;;8.80;99.90;;;;;;4975609;28;20203;-82
2023/09/25 04:41:19;;;;;;;5.93;1.60;;;8.70;99.90;;;;;;4949242;28;20203;-84
2023/09/25 04:43:47;;;;;;;4.30;1.33;;;8.60;99.90;;;;;;4968484;28;20195;-83
2023/09/25 04:46:15;;;;;;;4.80;1.30;;;8.40;99.90;;;;;;4960941;28;20188;-84
2023/09/25 04:48:43;;;;;;;2.90;1.10;;;8.30;99.90;;;;;;4979063;28;20199;-83
2023/09/25 04:51:11;;;;;;;4.25;1.63;;;8.40;99.90;;;;;;4959835;28;20196;-83
2023/09/25 04:53:39;;;;;;;4.07;1.52;;;8.20;99.90;;;;;;4963653;28;20195;-86
2023/09/25 04:56:07;;;;;;;3.20;1.15;;;8.30;99.90;;;;;;4959346;28;20268;-86
2023/09/25 04:58:37;;;;;;;3.13;1.35;;;8.60;99.90;;;;;;4988987;28;20187;-85
2023/09/25 05:01:05;;;;;;;4.15;1.50;;;8.70;99.90;;;;;;4978961;28;20204;-84
2023/09/25 05:03:33;;;;;;;3.70;1.60;;;8.80;99.90;;;;;;4984422;28;20187;-86
2023/09/25 05:06:00;;;;;;;5.80;1.67;;;8.80;99.90;;;;;;4966232;28;20657;-84
2023/09/25 05:08:28;;;;;;;4.30;1.33;;;8.70;99.90;;;;;;4986486;28;20199;-83
2023/09/25 05:10:58;;;;;;;2.10;1.00;;;8.70;99.90;;;;;;4983503;28;20184;-84
2023/09/25 05:13:26;;;;;;;2.55;1.42;;;8.90;99.90;;;;;;4971947;28;20270;-84
2023/09/25 05:15:54;;;;;;;7.10;1.60;;;9.00;99.90;;;;;;4981749;28;20251;-84
2023/09/25 05:18:22;;;;;;;6.38;1.70;;;9.00;99.90;;;;;;4974678;28;20259;-84
2023/09/25 05:20:50;;;;;;;6.60;1.63;;;8.80;99.90;;;;;;4975129;28;20228;-84
2023/09/25 05:23:20;;;;;;;9.70;2.00;;;8.80;99.90;;;;;;4970816;28;20199;-84
2023/09/25 05:25:48;;;;;;;6.65;1.60;;;8.80;99.90;;;;;;4983336;28;20801;-83
2023/09/25 05:28:16;;;;;;;3.50;1.50;;;8.80;99.90;;;;;;4981754;28;20194;-84
2023/09/25 05:30:43;;;;;;;3.28;1.20;;;8.80;99.90;;;;;;4974082;28;20545;-83
2023/09/25 05:33:11;;;;;;;4.85;1.60;;;9.00;99.90;;;;;;4971045;28;20195;-84
2023/09/25 05:35:39;;;;;;;5.90;1.50;;;9.10;99.90;;;;;;4961128;28;20192;-85
2023/09/25 05:38:07;;;;;;;2.70;1.48;;;9.10;99.90;;;;;;4962720;28;20195;-82
2023/09/25 05:40:35;;;;;;;7.45;1.65;;;9.20;99.90;;;;;;4966979;28;20234;-84
2023/09/25 05:43:03;;;;;;;4.78;1.50;;;9.30;99.90;;;;;;4964628;28;20892;-83
2023/09/25 05:45:32;;;;;;;6.85;1.67;;;9.30;99.90;;;;;;4981524;28;20202;-83
2023/09/25 05:47:59;;;;;;;4.85;1.50;;;9.40;99.90;;;;;;4970840;28;20192;-84
2023/09/25 05:50:32;;;;;;;2.92;1.50;;;9.40;99.90;;;;;;4980992;28;20270;-83
2023/09/25 05:53:00;;;;;;;4.50;1.30;;;9.50;99.90;;;;;;4983441;28;20704;-85
2023/09/25 05:55:28;;;;;;;3.58;1.58;;;9.60;99.90;;;;;;4964154;28;20823;-82
2023/09/25 05:57:56;;;;;;;8.60;1.50;;;9.50;99.90;;;;;;4956251;28;20565;-84
2023/09/25 06:00:24;;;;;;;5.10;1.33;;;9.50;99.90;;;;;;4982208;28;20266;-85
2023/09/25 06:02:52;;;;;;;4.95;1.70;;;9.60;99.90;;;;;;4982808;28;20284;-84
2023/09/25 06:05:19;;;;;;;6.80;1.65;;;9.60;99.90;;;;;;4978511;28;20199;-84
2023/09/25 06:07:47;;;;;;;6.07;1.80;;;9.70;99.90;;;;;;4967784;28;20188;-85
2023/09/25 06:10:17;;;;;;;6.25;1.60;;;9.70;99.90;;;;;;4977368;28;20219;-84
2023/09/25 06:12:47;;;;;;;6.10;1.63;;;9.80;99.90;;;;;;4984255;28;20191;-85
2023/09/25 06:15:15;;;;;;;7.35;1.70;;;9.70;99.90;;;;;;4963590;28;20273;-84
2023/09/25 06:17:43;;;;;;;4.30;1.40;;;9.80;99.90;;;;;;4979320;28;20183;-84
2023/09/25 06:20:17;;;;;;;6.65;1.77;;;9.90;99.90;;;;;;4980190;28;20232;-84
2023/09/25 06:22:46;;;;;;;7.35;1.85;;;10.00;99.90;;;;;;4977250;28;20214;-83
2023/09/25 06:25:17;;;;;;;10.80;2.08;;;10.10;99.90;;;;;;4980755;28;20192;-85
2023/09/25 06:27:46;;;;;;;6.68;1.77;;;10.10;99.90;;;;;;4980505;28;20214;-84
2023/09/25 06:30:16;;;;;;;7.25;1.90;;;10.20;99.90;;;;;;4981654;28;20247;-84
2023/09/25 06:32:44;;;;;;;5.97;1.88;;;10.20;99.90;;;;;;4982622;28;20201;-82
2023/09/25 06:35:12;;;;;;;5.78;1.55;;;10.20;99.90;;;;;;4981284;28;20194;-85
2023/09/25 06:37:40;;;;;;;5.50;1.90;;;10.30;99.90;;;;;;4980529;28;20183;-84
2023/09/25 06:40:15;;;;;;;8.77;1.85;;;10.40;99.90;;;;;;4985522;28;20211;-84
2023/09/25 06:42:43;;;;;;;6.35;1.88;;;10.50;99.90;;;;;;4973415;28;20224;-82
2023/09/25 06:45:11;;;;;;;5.00;1.83;;;10.50;99.90;;;;;;4970643;28;20729;-83
2023/09/25 06:47:40;;;;;;;9.25;1.92;;;10.70;99.90;;;;;;4963165;28;20195;-85
2023/09/25 06:50:08;;;;;;;10.60;1.80;;;10.90;99.90;;;;;;4982972;28;20604;-83
2023/09/25 06:52:36;;;;;;;6.72;2.03;;;11.00;99.90;;;;;;4956657;28;20203;-84
2023/09/25 06:55:05;;;;;;;5.90;1.50;;;11.10;99.90;;;;;;4968242;28;20282;-83
2023/09/25 06:57:33;;;;;;;6.53;2.03;;;11.20;99.90;;;;;;4975755;28;20188;-86
2023/09/25 07:00:00;;;;;;;9.05;2.03;;;11.30;99.90;;;;;;4981926;28;20211;-84
2023/09/25 07:02:31;;;;;;;6.93;1.98;;;11.40;99.90;;;;;;4974906;28;20188;-83
2023/09/25 07:04:59;;;;;;;7.22;2.17;;;11.50;99.90;;;;;;4985868;28;20242;-84
2023/09/25 07:07:30;;;;;;;8.25;2.03;;;11.40;99.90;;;;;;4963062;28;20600;-83
2023/09/25 07:09:57;;;;;;;8.85;1.77;;;11.50;99.90;;;;;;4980270;28;20238;-84
2023/09/25 07:12:25;;;;;;;8.30;2.15;;;11.50;99.90;;;;;;4984233;28;20222;-84
2023/09/25 07:14:56;;;;;;;5.05;1.60;;;11.50;99.90;;;;;;4979875;28;20196;-84
2023/09/25 07:17:26;;;;;;;7.38;1.88;;;11.60;99.90;;;;;;4976811;28;20255;-84
2023/09/25 07:19:55;;;;;;;5.95;1.70;;;11.80;99.90;;;;;;4984150;28;20597;-84
2023/09/25 07:22:25;;;;;;;5.20;1.60;;;11.80;99.90;;;;;;4953393;28;20203;-85
2023/09/25 07:24:54;;;;;;;6.22;1.65;;;11.80;99.90;;;;;;4981706;28;20188;-85
2023/09/25 07:27:21;;;;;;;6.60;1.77;;;11.90;99.90;;;;;;4969665;28;20195;-85
2023/09/25 07:29:49;;;;;;;4.53;1.35;;;12.00;99.90;;;;;;4963472;28;20278;-85
2023/09/25 07:32:17;;;;;;;4.07;1.48;;;11.90;99.90;;;;;;4964468;28;20191;-84
2023/09/25 07:34:46;;;;;;;6.38;1.38;;;12.00;99.90;;;;;;4946945;28;20183;-82
2023/09/25 07:37:14;;;;;;;7.18;1.73;;;12.10;99.90;;;;;;4966988;28;20192;-85
2023/09/25 07:39:42;;;;;;;5.18;1.77;;;12.10;99.90;;;;;;4979947;28;20195;-85
2023/09/25 07:42:11;;;;;;;7.97;1.80;;;12.20;99.90;;;;;;4943607;28;20192;-85
2023/09/25 07:44:38;;;;;;;3.22;1.42;;;12.30;99.90;;;;;;4975317;28;20184;-84
2023/09/25 07:47:06;;;;;;;6.75;1.80;;;12.30;99.90;;;;;;4976514;28;20274;-84
2023/09/25 07:49:44;;;;;;;6.65;1.80;;;12.40;99.90;;;;;;4970902;28;20642;-85
2023/09/25 07:52:17;;;;;;;7.20;1.80;;;12.40;99.90;;;;;;4965860;28;20183;-84
2023/09/25 07:54:48;;;;;;;5.20;1.90;;;12.50;99.90;;;;;;4977129;28;20734;-85
2023/09/25 07:57:20;;;;;;;6.32;1.35;;;12.60;99.90;;;;;;4961317;28;20202;-84
2023/09/25 07:59:49;;;;;;;5.60;1.67;;;12.60;99.90;;;;;;4957202;28;20191;-85
2023/09/25 08:02:19;;;;;;;4.22;1.60;;;12.60;99.90;;;;;;4980257;28;20195;-84
2023/09/25 08:04:50;;;;;;;4.88;1.65;;;12.80;99.90;;;;;;4977572;28;20191;-84
2023/09/25 08:07:18;;;;;;;8.82;2.05;;;12.70;99.90;;;;;;4988098;28;20840;-83
2023/09/25 08:09:46;;;;;;;6.45;1.77;;;12.70;99.90;;;;;;4974964;28;20192;-84
2023/09/25 08:12:15;;;;;;;5.53;1.45;;;12.90;99.90;;;;;;4978599;28;20198;-82
2023/09/25 08:14:42;;;;;;;6.25;1.88;;;12.80;99.90;;;;;;4962193;28;20612;-83
2023/09/25 08:17:10;;;;;;;6.15;1.63;;;12.90;99.90;;;;;;4984503;28;20253;-83
2023/09/25 08:19:38;;;;;;;5.32;1.40;;;12.90;99.90;;;;;;4952145;28;20221;-83
2023/09/25 08:22:07;;;;;;;5.70;1.35;;;12.90;99.90;;;;;;4937103;29;20251;-85
2023/09/25 08:24:35;;;;;;;6.05;1.92;;;12.90;99.90;;;;;;4945414;29;20288;-84
2023/09/25 08:27:04;;;;;;;8.63;1.67;;;13.00;99.90;;;;;;4934246;29;20204;-83
2023/09/25 08:29:32;;;;;;;5.45;1.60;;;13.00;99.90;;;;;;4925553;29;20366;-85
2023/09/25 08:32:00;;;;;;;6.70;2.17;;;13.10;99.90;;;;;;4946237;28;20204;-85
2023/09/25 08:34:28;;;;;;;9.57;2.13;;;13.30;99.90;;;;;;4947094;28;20228;-83
2023/09/25 08:36:56;;;;;;;6.72;1.25;;;13.10;99.90;;;;;;4945200;29;20284;-82
2023/09/25 08:39:24;;;;;;;3.38;1.33;;;13.00;99.90;;;;;;4943781;28;20419;-83
2023/09/25 08:41:52;;;;;;;5.00;1.80;;;12.90;99.90;;;;;;4945553;29;20240;-83
2023/09/25 08:44:20;;;;;;;4.50;1.52;;;12.90;99.90;;;;;;4935245;29;20196;-83
2023/09/25 08:46:49;;;;;;;4.15;1.60;;;13.10;99.90;;;;;;4944083;29;20189;-82
2023/09/25 08:49:17;;;;;;;5.15;1.88;;;13.10;99.90;;;;;;4940713;28;20193;-83
2023/09/25 08:51:45;;;;;;;4.15;1.63;;;13.20;99.90;;;;;;4945868;29;20213;-83
2023/09/25 08:54:13;;;;;;;5.80;1.60;;;13.30;99.90;;;;;;4942994;29;20809;-83
2023/09/25 08:56:41;;;;;;;7.95;1.58;;;13.50;99.90;;;;;;4943472;29;20288;-82
2023/09/25 08:59:11;;;;;;;4.32;1.58;;;13.70;99.90;;;;;;4940849;29;20652;-83
2023/09/25 09:01:40;;;;;;;4.38;1.40;;;13.80;99.90;;;;;;4945469;29;20212;-83
2023/09/25 09:04:09;;;;;;;5.82;1.30;;;13.60;99.90;;;;;;4943424;29;20199;-85
2023/09/25 09:06:37;;;;;;;4.50;1.75;;;13.80;99.90;;;;;;4942191;29;20240;-84
2023/09/25 09:09:07;;;;;;;6.25;1.83;;;13.80;99.90;;;;;;4946240;28;20188;-84
2023/09/25 09:11:36;;;;;;;5.53;1.77;;;13.80;99.90;;;;;;4937015;29;20284;-85
2023/09/25 09:14:05;;;;;;;4.13;1.55;;;14.00;99.90;;;;;;4945241;28;20196;-84
2023/09/25 09:16:33;;;;;;;6.63;1.60;;;13.90;99.90;;;;;;4943476;29;20192;-84
2023/09/25 09:19:07;;;;;;;4.68;1.30;;;13.90;99.90;;;;;;4946200;28;20200;-84
2023/09/25 09:21:35;;;;;;;5.57;1.67;;;13.90;99.90;;;;;;4985712;28;20198;-82
2023/09/25 09:24:04;;;;;;;7.70;1.50;;;13.80;99.90;;;;;;4984891;28;20188;-83
2023/09/25 09:26:32;;;;;;;5.20;1.60;;;13.70;99.90;;;;;;4982243;28;20196;-84
2023/09/25 09:29:00;;;;;;;6.55;1.63;;;13.60;99.90;;;;;;4982906;28;20188;-82
2023/09/25 09:31:31;;;;;;;4.57;1.50;;;13.70;99.90;;;;;;4983236;28;20198;-83
2023/09/25 09:33:59;;;;;;;5.50;1.50;;;13.90;99.90;;;;;;4983830;28;20559;-84
2023/09/25 09:36:28;;;;;;;7.35;1.60;;;13.90;99.90;;;;;;4988083;28;20234;-83
2023/09/25 09:38:58;;;;;;;5.78;2.05;;;13.80;99.90;;;;;;4983019;28;20202;-84
2023/09/25 09:41:27;;;;;;;7.75;1.80;;;14.00;99.90;;;;;;4980783;28;20213;-83
2023/09/25 09:43:55;;;;;;;5.13;1.50;;;13.90;99.90;;;;;;4980037;28;20191;-83
2023/09/25 09:46:28;;;;;;;6.35;1.65;;;13.80;99.90;;;;;;4980322;28;20196;-82
2023/09/25 09:48:57;;;;;;;5.28;1.40;;;13.60;99.90;;;;;;4984470;28;20196;-84
2023/09/25 09:51:27;;;;;;;5.63;1.52;;;13.50;99.90;;;;;;4972205;28;20203;-83
2023/09/25 09:53:56;;;;;;;7.72;1.73;;;13.60;99.90;;;;;;4982026;28;20188;-85
2023/09/25 09:56:25;;;;;;;5.18;1.70;;;13.70;99.90;;;;;;4953668;28;20609;-85
2023/09/25 09:58:54;;;;;;;5.90;1.75;;;13.90;99.90;;;;;;4968085;28;20211;-83
2023/09/25 10:01:24;;;;;;;4.00;1.77;;;14.10;99.90;;;;;;4981277;28;20239;-82
2023/09/25 10:03:53;;;;;;;4.15;1.45;;;14.20;99.90;;;;;;4967553;28;20245;-84
2023/09/25 10:06:27;;;;;;;6.38;1.80;;;14.40;99.90;;;;;;4970501;28;20247;-83
2023/09/25 10:09:00;;;;;;;7.72;2.10;;;14.70;99.90;;;;;;4982731;28;20180;-83
2023/09/25 10:11:28;;;;;;;3.42;1.73;;;14.50;99.90;;;;;;4981772;28;20662;-85
2023/09/25 10:14:04;;;;;;;5.85;1.67;;;14.50;99.90;;;;;;4963752;28;20258;-83
2023/09/25 10:16:57;;;;;;;5.20;1.85;;;14.50;99.90;;;;;;4967684;28;20199;-83
2023/09/25 10:19:40;;;;;;;4.82;1.92;;;14.60;99.90;;;;;;4979537;28;20234;-83
2023/09/25 10:22:18;;;;;;;6.20;1.58;;;14.80;99.90;;;;;;4977173;28;20227;-83
2023/09/25 10:24:48;;;;;;;4.65;1.70;;;14.60;99.90;;;;;;4979381;28;20196;-82
2023/09/25 10:27:17;;;;;;;7.72;1.83;;;14.70;99.90;;;;;;4978271;28;20191;-83
2023/09/25 10:30:08;;;;;;;5.15;1.90;;;14.70;99.90;;;;;;4962817;28;20187;-84
2023/09/25 10:32:40;;;;;;;8.57;2.25;;;14.70;99.90;;;;;;4955241;28;20238;-82
2023/09/25 10:35:37;;;;;;;5.18;2.05;;;14.90;99.90;;;;;;4963074;28;20551;-82
2023/09/25 10:38:09;;;;;;;7.22;1.88;;;15.10;99.90;;;;;;4980909;28;20959;-84
2023/09/25 10:40:59;;;;;;;7.55;1.90;;;15.30;99.90;;;;;;4974716;28;20873;-82
2023/09/25 10:43:26;;;;;;;6.97;2.00;;;15.30;99.90;;;;;;4961146;28;20584;-83
2023/09/25 10:45:54;;;;;;;4.70;1.85;;;15.30;99.90;;;;;;4977976;28;20663;-82
2023/09/25 10:48:24;;;;;;;5.43;2.08;;;15.30;99.90;;;;;;4978543;28;20563;-84
2023/09/25 10:50:52;;;;;;;6.50;2.08;;;15.30;99.90;;;;;;4980501;28;20192;-83
2023/09/25 10:53:23;;;;;;;6.68;2.33;;;15.30;99.90;;;;;;4983350;28;20599;-83
2023/09/25 10:55:51;;;;;;;6.78;1.90;;;15.40;99.90;;;;;;4976652;28;20191;-85
2023/09/25 10:58:21;;;;;;;6.13;1.63;;;15.80;99.90;;;;;;4979061;28;20258;-83
2023/09/25 11:00:51;;;;;;;9.40;2.28;;;15.80;99.90;;;;;;4978457;28;20618;-84
2023/09/25 11:03:19;;;;;;;5.70;2.08;;;15.80;99.90;;;;;;4976011;28;20266;-83
2023/09/25 11:05:51;;;;;;;5.97;2.10;;;15.80;99.90;;;;;;4979373;28;20195;-82
2023/09/25 11:08:21;;;;;;;8.25;2.38;;;15.70;99.90;;;;;;4966152;28;20626;-84
2023/09/25 11:10:50;;;;;;;6.90;1.98;;;15.70;99.90;;;;;;4979129;28;20260;-84
2023/09/25 11:13:20;;;;;;;4.28;1.90;;;15.90;99.90;;;;;;4982882;28;20191;-84
2023/09/25 11:15:48;;;;;;;8.73;2.17;;;16.00;99.90;;;;;;4981700;28;20187;-84
2023/09/25 11:18:19;;;;;;;4.93;2.28;;;16.10;99.90;;;;;;4961183;28;20316;-84
2023/09/25 11:20:48;;;;;;;7.13;2.67;;;16.00;99.90;;;;;;4973092;28;20238;-84
2023/09/25 11:23:17;;;;;;;8.60;2.55;;;15.90;99.90;;;;;;4960353;28;20954;-83
2023/09/25 11:25:53;;;;;;;7.30;2.38;;;15.90;99.90;;;;;;4961188;28;20659;-83
2023/09/25 11:28:24;;;;;;;6.80;2.58;;;16.10;99.90;;;;;;4964021;28;20277;-82
2023/09/25 11:30:51;;;;;;;6.90;2.72;;;16.40;99.90;;;;;;4964244;28;20199;-83
2023/09/25 11:33:23;;;;;;;4.90;2.03;;;16.30;99.90;;;;;;4980996;28;20195;-83
2023/09/25 11:35:54;;;;;;;9.18;2.30;;;16.50;99.90;;;;;;4969869;28;20655;-84
2023/09/25 11:38:25;;;;;;;7.25;2.58;;;16.60;99.90;;;;;;4962672;28;20199;-83
2023/09/25 11:40:53;;;;;;;8.15;2.45;;;16.40;99.90;;;;;;4981086;28;20219;-84
2023/09/25 11:43:23;;;;;;;10.57;2.50;;;16.50;99.90;;;;;;4959015;28;20214;-83
2023/09/25 11:45:52;;;;;;;10.73;2.72;;;16.60;99.90;;;;;;4979723;28;20184;-84
2023/09/25 11:48:22;;;;;;;8.43;2.50;;;16.70;99.90;;;;;;4978895;28;20192;-83
2023/09/25 11:50:51;;;;;;;8.10;2.28;;;16.60;99.90;;;;;;4946317;28;20199;-82
2023/09/25 11:53:19;;;;;;;7.22;2.38;;;16.60;99.90;;;;;;4963528;28;20223;-82
2023/09/25 11:55:48;;;;;;;13.55;3.28;;;16.80;99.90;;;;;;4958954;28;20199;-84
2023/09/25 11:58:17;;;;;;;6.93;2.53;;;16.50;99.90;;;;;;4982773;28;20192;-82
2023/09/25 12:00:45;;;;;;;6.03;2.90;;;16.40;99.90;;;;;;4964117;28;20188;-84
2023/09/25 12:03:13;;;;;;;8.30;2.88;;;16.60;99.90;;;;;;4979929;28;20180;-84
2023/09/25 12:05:41;;;;;;;7.50;2.67;;;16.60;99.90;;;;;;4985037;28;20196;-84
2023/09/25 12:08:12;;;;;;;8.93;2.95;;;16.60;99.90;;;;;;4979329;28;20215;-82
2023/09/25 12:10:40;;;;;;;7.28;2.92;;;16.80;99.90;;;;;;4967997;28;20615;-84
2023/09/25 12:13:09;;;;;;;6.05;2.30;;;16.90;99.90;;;;;;4981342;28;20195;-83
2023/09/25 12:15:37;;;;;;;6.95;2.53;;;17.00;99.90;;;;;;4976583;28;20945;-83
2023/09/25 12:18:06;;;;;;;8.55;2.78;;;17.20;99.90;;;;;;4985107;28;20239;-83
2023/09/25 12:20:41;;;;;;;5.38;2.88;;;17.30;99.90;;;;;;4964731;28;20294;-82
2023/09/25 12:23:09;;;;;;;7.35;2.90;;;17.30;99.90;;;;;;4964605;28;20183;-85
2023/09/25 12:25:37;;;;;;;7.78;2.70;;;17.30;99.90;;;;;;4975615;28;20187;-83
2023/09/25 12:28:05;;;;;;;4.95;2.58;;;17.10;99.90;;;;;;4963968;28;20187;-83
2023/09/25 12:30:35;;;;;;;7.03;2.75;;;17.20;99.90;;;;;;4984520;28;20454;-83
2023/09/25 12:33:04;;;;;;;6.95;2.50;;;17.30;99.90;;;;;;4980021;28;20203;-83
2023/09/25 12:35:32;;;;;;;10.70;3.40;;;17.20;99.90;;;;;;4987763;28;20188;-84
2023/09/25 12:37:59;;;;;;;5.35;2.60;;;17.20;99.90;;;;;;4981588;28;20184;-82
2023/09/25 12:40:29;;;;;;;6.55;2.80;;;17.20;99.90;;;;;;4972117;28;20192;-84
2023/09/25 12:42:58;;;;;;;6.68;2.60;;;17.20;99.90;;;;;;4968204;28;20933;-84
2023/09/25 12:45:25;;;;;;;8.07;3.10;;;17.10;99.90;;;;;;4984540;28;20212;-84
2023/09/25 12:47:54;;;;;;;7.28;2.17;;;17.10;99.90;;;;;;4983009;28;20242;-83
2023/09/25 12:50:22;;;;;;;7.20;2.60;;;17.20;99.90;;;;;;4970634;28;20666;-84
2023/09/25 12:52:50;;;;;;;5.90;3.10;;;17.30;99.90;;;;;;4970004;28;20290;-83
2023/09/25 12:55:18;;;;;;;7.38;2.97;;;17.30;99.90;;;;;;4946355;28;20198;-84
2023/09/25 12:57:48;;;;;;;8.80;2.75;;;17.40;99.90;;;;;;4983139;28;20553;-84
2023/09/25 13:00:18;;;;;;;9.10;3.20;;;17.70;99.90;;;;;;4979377;28;20195;-83